Terminal Aerodrome Forecast
Issued by NWS Melbourne, FL

Home | Current Version | Previous Version | Text Only | Print | Product List | Glossary On
Versions: 1 2 3 4 5 6 7 8 9 10 11 12 13 14 15 16 17 18 19 20
000
FTUS42 KMLB 202254 AAD
TAFMLB
TAF AMD
KMLB 202254Z 2023/2118 VRB05KT 6SM -RA VCTS FEW035CB BKN100
     FM210100 17005KT P6SM FEW040 BKN120 OVC250
     FM211400 24006KT P6SM SCT035 SCT250=

USA.gov is the U.S. government's official web portal to all federal, state and local government web resources and services.